createdAt,value
2023-05-03T00:01:01.379Z,101607.50
2023-05-03T00:03:29.480Z,101595.09
2023-05-03T00:05:57.416Z,101608.41
2023-05-03T00:08:26.705Z,101603.09
2023-05-03T00:11:01.021Z,101609.28
2023-05-03T00:13:29.079Z,101601.25
2023-05-03T00:15:56.997Z,101603.03
2023-05-03T00:18:25.225Z,101613.63
2023-05-03T00:20:55.121Z,101613.63
2023-05-03T00:23:22.950Z,101601.19
2023-05-03T00:25:54.768Z,101618.00
2023-05-03T00:28:22.764Z,101610.00
2023-05-03T00:30:50.940Z,101556.75
2023-05-03T00:33:19.030Z,101607.31
2023-05-03T00:35:47.048Z,101567.38
2023-05-03T00:38:15.643Z,101435.16
2023-05-03T00:40:43.508Z,101595.78
2023-05-03T00:43:14.359Z,101601.09
2023-05-03T00:45:42.608Z,101600.22
2023-05-03T00:48:10.613Z,101603.75
2023-05-03T00:50:38.804Z,101577.00
2023-05-03T00:53:07.503Z,101605.44
2023-05-03T00:55:37.277Z,101600.13
2023-05-03T00:58:05.124Z,101600.06
2023-05-03T01:00:34.569Z,101604.50
2023-05-03T01:03:02.572Z,101590.25
2023-05-03T01:05:40.044Z,101464.19
2023-05-03T01:08:13.813Z,101598.97
2023-05-03T01:10:49.665Z,101596.41
2023-05-03T01:13:25.945Z,101567.91
2023-05-03T01:16:07.258Z,101603.47
2023-05-03T01:18:40.202Z,101607.94
2023-05-03T01:21:09.503Z,101590.13
2023-05-03T01:23:43.914Z,101607.84
2023-05-03T01:26:22.779Z,101606.97
2023-05-03T01:28:51.634Z,101606.09
2023-05-03T01:31:24.827Z,101617.59
2023-05-03T01:34:03.690Z,101616.66
2023-05-03T01:36:33.715Z,101613.06
2023-05-03T01:39:09.453Z,101614.91
2023-05-03T01:41:41.572Z,101615.69
2023-05-03T01:44:10.339Z,101578.28
2023-05-03T01:46:43.565Z,101597.91
2023-05-03T01:49:12.844Z,101551.63
2023-05-03T01:51:40.932Z,101619.94
2023-05-03T01:54:09.044Z,101622.63
2023-05-03T01:56:39.385Z,101614.69
2023-05-03T01:59:07.218Z,101618.22
2023-05-03T02:01:35.151Z,101540.09
2023-05-03T02:04:03.110Z,101593.47
2023-05-03T02:06:31.611Z,101612.19
2023-05-03T02:09:00.770Z,101555.16
2023-05-03T02:11:28.661Z,101627.94
2023-05-03T02:13:57.969Z,101626.88
2023-05-03T02:16:26.263Z,101597.38
2023-05-03T02:18:55.808Z,101624.97
2023-05-03T02:21:23.815Z,101640.88
2023-05-03T02:23:52.182Z,101610.63
2023-05-03T02:26:20.129Z,101632.88
2023-05-03T02:28:48.067Z,101624.81
2023-05-03T02:31:17.353Z,101610.63
2023-05-03T02:33:45.332Z,101647.06
2023-05-03T02:36:13.166Z,101653.19
2023-05-03T02:38:40.986Z,101649.63
2023-05-03T02:41:08.932Z,101660.25
2023-05-03T02:43:36.904Z,101631.09
2023-05-03T02:46:05.471Z,101607.94
2023-05-03T02:48:34.795Z,101638.91
2023-05-03T02:51:03.336Z,101646.94
2023-05-03T02:53:31.175Z,101649.41
2023-05-03T02:56:03.160Z,101629.78
2023-05-03T02:58:32.159Z,101649.31
2023-05-03T03:01:02.641Z,101644.72
2023-05-03T03:03:31.676Z,101652.69
2023-05-03T03:06:01.195Z,101611.78
2023-05-03T03:08:29.674Z,101649.19
2023-05-03T03:11:01.448Z,101636.72
2023-05-03T03:13:29.483Z,101637.66
2023-05-03T03:15:57.384Z,101658.97
2023-05-03T03:18:25.445Z,101630.47
2023-05-03T03:20:53.493Z,101661.84
2023-05-03T03:23:24.756Z,101639.69
2023-05-03T03:25:53.064Z,101620.81
2023-05-03T03:28:21.531Z,101653.69
2023-05-03T03:30:50.121Z,101665.06
2023-05-03T03:33:24.688Z,101660.75
2023-05-03T03:35:55.840Z,101629.50
2023-05-03T03:38:29.751Z,101654.44
2023-05-03T03:41:03.579Z,101657.78
2023-05-03T03:43:31.568Z,101653.31
2023-05-03T03:46:00.738Z,101653.38
2023-05-03T03:48:28.604Z,101649.06
2023-05-03T03:50:57.903Z,101643.75
2023-05-03T03:53:34.672Z,101581.56
2023-05-03T03:56:02.515Z,101570.84
2023-05-03T03:58:31.806Z,101656.06
2023-05-03T04:01:00.740Z,101633.69
2023-05-03T04:03:30.021Z,101625.81
2023-05-03T04:05:58.574Z,101617.91
2023-05-03T04:08:27.868Z,101648.94
2023-05-03T04:10:57.304Z,101640.91
2023-05-03T04:13:26.804Z,101648.06
2023-05-03T04:15:57.198Z,101647.38
2023-05-03T04:18:26.819Z,101642.84
2023-05-03T04:20:57.288Z,101615.66
2023-05-03T04:23:25.234Z,101646.44
2023-05-03T04:25:53.523Z,101636.13
2023-05-03T04:28:25.079Z,101634.69
2023-05-03T04:30:53.349Z,101625.13
2023-05-03T04:33:25.725Z,101637.56
2023-05-03T04:35:55.314Z,101661.44
2023-05-03T04:38:23.348Z,101654.31
2023-05-03T04:40:51.436Z,101664.06
2023-05-03T04:43:19.723Z,101657.94
2023-05-03T04:45:53.060Z,101639.50
2023-05-03T04:48:24.403Z,101669.56
2023-05-03T04:50:53.168Z,101669.56
2023-05-03T04:53:23.242Z,101666.56
2023-05-03T04:56:11.528Z,101664.63
2023-05-03T04:58:41.647Z,101662.81
2023-05-03T05:01:11.772Z,101668.84
2023-05-03T05:03:40.014Z,101662.56
2023-05-03T05:06:13.014Z,101662.56
2023-05-03T05:08:43.031Z,101623.50
2023-05-03T05:11:14.603Z,101665.34
2023-05-03T05:13:42.804Z,101648.72
2023-05-03T05:16:12.220Z,101670.19
2023-05-03T05:18:43.750Z,101668.50
2023-05-03T05:21:12.561Z,101666.78
2023-05-03T05:23:40.621Z,101676.53
2023-05-03T05:26:08.852Z,101670.34
2023-05-03T05:28:38.041Z,101673.97
2023-05-03T05:31:06.066Z,101670.44
2023-05-03T05:33:35.521Z,101678.41
2023-05-03T05:36:05.197Z,101663.06
2023-05-03T05:38:33.919Z,101678.34
2023-05-03T05:41:02.243Z,101683.81
2023-05-03T05:43:30.988Z,101681.97
2023-05-03T05:45:59.127Z,101688.13
2023-05-03T05:48:27.024Z,101681.91
2023-05-03T05:50:56.230Z,101682.84
2023-05-03T05:53:24.921Z,101684.63
2023-05-03T05:55:58.885Z,101670.41
2023-05-03T05:58:28.354Z,101638.47
2023-05-03T06:01:00.219Z,101688.13
2023-05-03T06:03:31.711Z,101668.50
2023-05-03T06:06:02.378Z,101682.94
2023-05-03T06:08:30.484Z,101693.66
2023-05-03T06:10:58.441Z,101685.66
2023-05-03T06:13:28.242Z,101693.59
2023-05-03T06:15:56.769Z,101672.28
2023-05-03T06:18:25.549Z,101646.56
2023-05-03T06:20:53.377Z,101705.13
2023-05-03T06:23:23.498Z,101698.03
2023-05-03T06:25:53.417Z,101714.84
2023-05-03T06:28:22.166Z,101716.63
2023-05-03T06:30:52.854Z,101690.81
2023-05-03T06:33:20.898Z,101722.78
2023-05-03T06:35:52.127Z,101698.72
2023-05-03T06:38:20.747Z,101717.25
2023-05-03T06:40:50.444Z,101725.13
2023-05-03T06:43:18.395Z,101702.00
2023-05-03T06:46:01.365Z,101715.16
2023-05-03T06:48:29.305Z,101721.50
2023-05-03T06:50:57.667Z,101720.47
2023-05-03T06:53:25.656Z,101714.97
2023-05-03T06:55:54.963Z,101689.22
2023-05-03T06:58:22.833Z,101712.94
2023-05-03T07:00:53.828Z,101710.09
2023-05-03T07:03:21.840Z,101719.50
2023-05-03T07:05:49.853Z,101714.78
2023-05-03T07:08:17.768Z,101715.88
2023-05-03T07:10:45.573Z,101719.25
2023-05-03T07:13:15.269Z,101716.59
2023-05-03T07:15:44.122Z,101659.03
2023-05-03T07:18:12.312Z,101663.84
2023-05-03T07:20:40.267Z,101713.50
2023-05-03T07:23:08.104Z,101665.31
2023-05-03T07:25:36.300Z,101707.88
2023-05-03T07:28:04.388Z,101703.53
2023-05-03T07:30:33.526Z,101676.44
2023-05-03T07:33:01.439Z,101662.72
2023-05-03T07:35:29.454Z,101718.94
2023-05-03T07:37:57.742Z,101714.28
2023-05-03T07:40:28.675Z,101698.88
2023-05-03T07:42:56.636Z,101700.97
2023-05-03T07:45:24.760Z,101692.81
2023-05-03T07:47:54.468Z,101695.66
2023-05-03T07:50:22.553Z,101696.31
2023-05-03T07:52:52.108Z,101665.09
2023-05-03T07:55:21.174Z,101664.66
2023-05-03T07:57:49.123Z,101658.34
2023-05-03T08:00:17.888Z,101676.91
2023-05-03T08:02:45.900Z,101682.47
2023-05-03T08:05:16.390Z,101685.63
2023-05-03T08:07:44.397Z,101658.09
2023-05-03T08:10:12.911Z,101576.38
2023-05-03T08:12:40.750Z,101688.19
2023-05-03T08:15:09.666Z,101686.50
2023-05-03T08:17:41.860Z,101694.34
2023-05-03T08:20:11.769Z,101691.06
2023-05-03T08:22:41.437Z,101697.38
2023-05-03T08:25:10.232Z,101649.53
2023-05-03T08:27:39.022Z,101689.25
2023-05-03T08:30:08.627Z,101701.31
2023-05-03T08:32:36.521Z,101685.41
2023-05-03T08:35:07.013Z,101684.78
2023-05-03T08:37:41.135Z,101685.94
2023-05-03T08:40:11.902Z,101682.75
2023-05-03T08:42:41.122Z,101677.81
2023-05-03T08:45:11.427Z,101681.03
2023-05-03T08:47:40.749Z,101678.16
2023-05-03T08:50:10.798Z,101680.75
2023-05-03T08:52:42.502Z,101685.88
2023-05-03T08:55:11.798Z,101676.63
2023-05-03T08:57:41.206Z,101633.25
2023-05-03T09:00:12.833Z,101667.31
2023-05-03T09:02:41.422Z,101671.78
2023-05-03T09:05:35.104Z,101674.13
2023-05-03T09:08:05.976Z,101675.34
2023-05-03T09:10:35.116Z,101677.81
2023-05-03T09:13:03.812Z,101672.94
2023-05-03T09:15:32.444Z,101642.81
2023-05-03T09:18:17.610Z,101570.25
2023-05-03T09:20:52.006Z,101652.88
2023-05-03T09:23:31.745Z,101641.25
2023-05-03T09:26:00.257Z,101658.00
2023-05-03T09:28:28.208Z,101644.28
2023-05-03T09:31:06.657Z,101660.75
2023-05-03T09:33:35.041Z,101672.72
2023-05-03T09:36:04.313Z,101630.34
2023-05-03T09:38:35.291Z,101626.84
2023-05-03T09:41:06.118Z,101621.78
2023-05-03T09:43:34.716Z,101642.53
2023-05-03T09:46:10.880Z,101605.03
2023-05-03T09:48:39.270Z,101654.09
2023-05-03T09:51:08.151Z,101639.38
2023-05-03T09:53:38.488Z,101645.97
2023-05-03T09:56:08.990Z,101649.03
2023-05-03T09:58:37.096Z,101654.56
2023-05-03T10:01:05.160Z,101620.53
2023-05-03T10:03:39.105Z,101644.44
2023-05-03T10:06:12.606Z,101649.59
2023-05-03T10:08:46.407Z,101626.72
2023-05-03T10:11:18.340Z,101559.66
2023-05-03T10:13:46.501Z,101650.22
2023-05-03T10:16:18.875Z,101632.56
2023-05-03T10:18:53.844Z,101648.31
2023-05-03T10:21:32.377Z,101635.81
2023-05-03T10:24:22.247Z,101643.69
2023-05-03T10:26:52.230Z,101633.66
2023-05-03T10:29:49.823Z,101651.00
2023-05-03T10:32:34.427Z,101623.22
2023-05-03T10:35:05.760Z,101643.31
2023-05-03T10:37:36.159Z,101623.75
2023-05-03T10:40:11.370Z,101635.69
2023-05-03T10:42:40.337Z,101634.88
2023-05-03T10:45:21.735Z,101629.16
2023-05-03T10:48:20.479Z,101593.09
2023-05-03T10:50:51.685Z,101623.47
2023-05-03T10:53:37.087Z,101618.13
2023-05-03T10:56:08.826Z,101619.19
2023-05-03T10:58:38.310Z,101604.25
2023-05-03T11:01:08.076Z,101587.69
2023-05-03T11:03:45.405Z,101597.59
2023-05-03T11:06:32.672Z,101604.88
2023-05-03T11:09:00.879Z,101575.31
2023-05-03T11:11:32.177Z,101605.41
2023-05-03T11:14:00.326Z,101601.72
2023-05-03T11:16:28.408Z,101601.38
2023-05-03T11:18:57.065Z,101603.84
2023-05-03T11:21:25.281Z,101599.44
2023-05-03T11:23:53.295Z,101603.13
2023-05-03T11:26:26.161Z,101579.22
2023-05-03T11:28:56.065Z,101594.22
2023-05-03T11:31:24.344Z,101603.72
2023-05-03T11:33:52.272Z,101583.16
2023-05-03T11:36:20.280Z,101595.53
2023-05-03T11:38:48.373Z,101592.31
2023-05-03T11:41:17.361Z,101583.09
2023-05-03T11:43:46.698Z,101574.81
2023-05-03T11:46:19.000Z,101488.56
2023-05-03T11:48:47.236Z,101537.78
2023-05-03T11:51:15.327Z,101575.34
2023-05-03T11:53:43.886Z,101570.56
2023-05-03T11:56:19.122Z,101533.63
2023-05-03T11:58:57.072Z,101562.53
2023-05-03T12:01:28.261Z,101565.88
2023-05-03T12:03:58.169Z,101546.56
2023-05-03T12:06:27.847Z,101524.34
2023-05-03T12:08:56.487Z,101566.22
2023-05-03T12:11:27.252Z,101556.69
2023-05-03T12:14:00.495Z,101549.41
2023-05-03T12:16:46.497Z,101545.13
2023-05-03T12:19:25.274Z,101538.97
2023-05-03T12:22:13.320Z,101543.34
2023-05-03T12:24:41.855Z,101540.47
2023-05-03T12:27:14.204Z,101542.16
2023-05-03T12:29:42.435Z,101537.06
2023-05-03T12:32:12.297Z,101542.19
2023-05-03T12:34:41.468Z,101535.66
2023-05-03T12:37:11.957Z,101531.03
2023-05-03T12:39:40.743Z,101505.44
2023-05-03T12:42:09.850Z,101498.19
2023-05-03T12:44:42.838Z,101511.69
2023-05-03T12:47:16.960Z,101528.44
2023-05-03T12:49:57.971Z,101501.97
2023-05-03T12:55:02.631Z,101514.97
2023-05-03T12:57:36.709Z,101515.41
2023-05-03T13:00:12.321Z,101511.22
2023-05-03T13:05:26.970Z,101479.13
2023-05-03T13:08:08.741Z,101461.50
2023-05-03T13:10:38.579Z,101513.22
2023-05-03T13:13:06.844Z,101268.44
2023-05-03T13:15:36.650Z,101502.91
2023-05-03T13:18:07.679Z,101501.19
2023-05-03T13:20:37.305Z,101494.53
2023-05-03T13:23:05.320Z,101488.47
2023-05-03T13:25:33.299Z,101485.06
2023-05-03T13:28:01.865Z,101483.59
2023-05-03T13:30:30.212Z,101472.25
2023-05-03T13:32:58.235Z,101483.31
2023-05-03T13:35:27.549Z,101436.78
2023-05-03T13:37:55.524Z,101480.31
2023-05-03T13:40:24.700Z,101475.94
2023-05-03T13:42:52.848Z,101479.75
2023-05-03T13:45:20.902Z,101470.41
2023-05-03T13:48:11.218Z,101361.88
2023-05-03T13:50:38.150Z,101468.94
2023-05-03T13:53:06.197Z,101468.13
2023-05-03T13:55:34.057Z,101422.59
2023-05-03T13:58:02.121Z,101463.84
2023-05-03T14:00:32.107Z,101444.59
2023-05-03T14:03:00.407Z,101437.63
2023-05-03T14:05:28.289Z,101459.78
2023-05-03T14:07:58.220Z,101456.91
2023-05-03T14:10:26.062Z,101435.88
2023-05-03T14:12:53.948Z,101340.63
2023-05-03T14:15:21.955Z,101439.28
2023-05-03T14:17:49.899Z,101435.19
2023-05-03T14:20:18.280Z,101427.63
2023-05-03T14:22:46.799Z,101431.28
2023-05-03T14:25:16.255Z,101431.72
2023-05-03T14:27:44.270Z,101420.66
2023-05-03T14:30:13.090Z,101436.41
2023-05-03T14:32:41.129Z,101396.31
2023-05-03T14:35:09.872Z,101406.91
2023-05-03T14:37:38.017Z,101430.50
2023-05-03T14:40:08.006Z,101407.84
2023-05-03T14:42:37.627Z,101400.78
2023-05-03T14:45:07.492Z,101413.06
2023-05-03T14:47:36.654Z,101401.25
2023-05-03T14:50:05.184Z,101393.31
2023-05-03T14:52:33.612Z,101396.38
2023-05-03T14:55:02.032Z,101380.38
2023-05-03T14:57:31.571Z,101396.88
2023-05-03T15:00:01.985Z,101356.78
2023-05-03T15:02:30.162Z,101407.59
2023-05-03T15:04:58.159Z,101408.47
2023-05-03T15:07:26.073Z,101404.84
2023-05-03T15:09:54.095Z,101401.81
2023-05-03T15:12:21.972Z,101394.38
2023-05-03T15:14:49.876Z,101397.66
2023-05-03T15:17:19.324Z,101393.66
2023-05-03T15:19:47.757Z,101372.41
2023-05-03T15:22:16.007Z,101373.75
2023-05-03T15:24:44.163Z,101391.44
2023-05-03T15:27:12.719Z,101382.06
2023-05-03T15:29:41.376Z,101371.91
2023-05-03T15:32:09.324Z,101380.53
2023-05-03T15:34:39.548Z,101374.50
2023-05-03T15:37:07.652Z,101375.13
2023-05-03T15:39:35.759Z,101349.00
2023-05-03T15:42:04.006Z,101236.56
2023-05-03T15:44:32.066Z,101355.88
2023-05-03T15:46:59.869Z,101153.59
2023-05-03T15:49:27.874Z,101346.88
2023-05-03T15:51:57.058Z,101358.47
2023-05-03T15:54:24.959Z,101363.72
2023-05-03T15:56:53.754Z,101369.16
2023-05-03T15:59:21.629Z,101353.44
2023-05-03T16:01:49.543Z,101361.19
2023-05-03T16:04:17.745Z,101248.84
2023-05-03T16:06:45.636Z,101362.78
2023-05-03T16:09:16.046Z,101368.84
2023-05-03T16:11:44.686Z,101337.09
2023-05-03T16:14:12.934Z,101345.31
2023-05-03T16:16:41.322Z,101357.09
2023-05-03T16:19:09.326Z,101359.97
2023-05-03T16:21:37.339Z,101358.09
2023-05-03T16:24:05.823Z,101367.44
2023-05-03T16:26:36.050Z,101335.31
2023-05-03T16:29:03.746Z,101358.25
2023-05-03T16:31:32.374Z,101353.81
2023-05-03T16:34:00.576Z,101344.38
2023-05-03T16:36:28.800Z,101336.72
2023-05-03T16:38:57.002Z,101339.75
2023-05-03T16:41:25.357Z,101357.09
2023-05-03T16:43:55.906Z,101306.56
2023-05-03T16:46:24.216Z,101352.44
2023-05-03T16:48:52.442Z,101335.28
2023-05-03T16:51:22.464Z,101353.09
2023-05-03T16:53:50.567Z,101348.63
2023-05-03T16:56:18.454Z,101349.28
2023-05-03T16:58:47.700Z,101340.75
2023-05-03T17:01:17.026Z,101354.41
2023-05-03T17:03:51.208Z,101257.22
2023-05-03T17:06:19.799Z,101303.75
2023-05-03T17:08:47.771Z,101340.38
2023-05-03T17:11:16.050Z,101337.50
2023-05-03T17:13:44.523Z,101343.72
2023-05-03T17:16:15.610Z,101220.44
2023-05-03T17:18:45.848Z,101344.66
2023-05-03T17:21:13.883Z,101347.13
2023-05-03T17:23:42.004Z,101344.50
2023-05-03T17:26:11.312Z,101340.63
2023-05-03T17:28:39.767Z,101330.38
2023-05-03T17:31:08.122Z,101330.91
2023-05-03T17:33:36.504Z,101330.00
2023-05-03T17:36:06.395Z,101340.13
2023-05-03T17:38:35.760Z,101343.59
2023-05-03T17:41:07.296Z,101343.84
2023-05-03T17:43:35.658Z,101346.25
2023-05-03T17:46:08.909Z,101343.41
2023-05-03T17:48:37.945Z,101272.72
2023-05-03T17:51:09.649Z,101325.06
2023-05-03T17:53:37.534Z,101325.16
2023-05-03T17:56:05.714Z,101329.78
2023-05-03T17:58:33.665Z,101300.78
2023-05-03T18:01:01.642Z,101332.47
2023-05-03T18:03:29.708Z,101336.88
2023-05-03T18:05:57.797Z,101318.00
2023-05-03T18:08:27.078Z,101337.22
2023-05-03T18:10:54.923Z,101339.00
2023-05-03T18:13:22.919Z,101334.31
2023-05-03T18:15:51.091Z,101330.50
2023-05-03T18:18:18.984Z,101339.53
2023-05-03T18:20:46.825Z,101337.06
2023-05-03T18:23:14.722Z,101328.56
2023-05-03T18:25:46.135Z,101319.84
2023-05-03T18:28:14.097Z,101321.16
2023-05-03T18:30:42.675Z,101350.25
2023-05-03T18:33:10.781Z,101346.53
2023-05-03T18:35:38.861Z,101341.97
2023-05-03T18:38:06.858Z,101344.75
2023-05-03T18:40:34.790Z,101278.72
2023-05-03T18:43:04.178Z,101312.03
2023-05-03T18:45:32.125Z,101337.19
2023-05-03T18:48:00.672Z,101347.41
2023-05-03T18:50:28.626Z,101334.66
2023-05-03T18:52:56.446Z,101324.59
2023-05-03T18:55:25.442Z,101339.25
2023-05-03T18:57:53.281Z,101353.00
2023-05-03T19:00:22.630Z,101347.78
2023-05-03T19:02:50.618Z,101359.94
2023-05-03T19:05:18.573Z,101356.75
2023-05-03T19:07:47.954Z,101359.81
2023-05-03T19:10:16.837Z,101353.81
2023-05-03T19:12:44.912Z,101347.22
2023-05-03T19:15:13.497Z,101356.56
2023-05-03T19:17:43.392Z,101353.88
2023-05-03T19:20:11.995Z,101353.25
2023-05-03T19:22:39.967Z,101348.13
2023-05-03T19:25:09.561Z,101256.53
2023-05-03T19:27:37.508Z,101344.31
2023-05-03T19:30:06.597Z,101352.38
2023-05-03T19:32:39.018Z,101317.19
2023-05-03T19:35:09.852Z,101337.06
2023-05-03T19:37:37.692Z,101347.63
2023-05-03T19:40:07.997Z,101348.50
2023-05-03T19:42:35.752Z,101352.97
2023-05-03T19:45:04.396Z,101350.31
2023-05-03T19:47:32.984Z,101356.63
2023-05-03T19:50:00.918Z,101352.50
2023-05-03T19:52:30.210Z,101348.97
2023-05-03T19:54:58.545Z,101348.47
2023-05-03T19:57:26.487Z,101335.44
2023-05-03T19:59:54.410Z,101334.50
2023-05-03T20:02:24.831Z,101349.53
2023-05-03T20:04:53.119Z,101341.69
2023-05-03T20:07:21.014Z,101345.38
2023-05-03T20:09:50.291Z,101348.19
2023-05-03T20:12:18.166Z,101341.28
2023-05-03T20:14:46.113Z,101325.38
2023-05-03T20:17:14.351Z,101352.97
2023-05-03T20:19:42.313Z,101351.91
2023-05-03T20:22:10.470Z,101338.88
2023-05-03T20:24:38.302Z,101360.41
2023-05-03T20:27:07.643Z,101302.38
2023-05-03T20:29:36.124Z,101324.00
2023-05-03T20:32:04.110Z,101353.94
2023-05-03T20:34:32.042Z,101354.91
2023-05-03T20:37:00.065Z,101357.59
2023-05-03T20:39:27.953Z,101320.47
2023-05-03T20:41:55.939Z,101352.25
2023-05-03T20:44:25.245Z,101344.28
2023-05-03T20:46:53.191Z,101336.41
2023-05-03T20:49:21.089Z,101300.22
2023-05-03T20:51:49.953Z,101347.13
2023-05-03T20:54:17.865Z,101322.59
2023-05-03T20:56:45.734Z,101354.53
2023-05-03T20:59:13.584Z,101356.31
2023-05-03T21:01:42.791Z,101332.34
2023-05-03T21:04:10.721Z,101329.72
2023-05-03T21:06:38.630Z,101349.25
2023-05-03T21:09:06.845Z,101343.78
2023-05-03T21:11:34.821Z,101346.44
2023-05-03T21:14:02.855Z,101311.94
2023-05-03T21:16:31.221Z,101357.19
2023-05-03T21:19:01.306Z,101322.69
2023-05-03T21:21:30.060Z,101351.19
2023-05-03T21:23:58.454Z,101352.78
2023-05-03T21:26:26.393Z,101350.09
2023-05-03T21:28:54.223Z,101242.38
2023-05-03T21:31:22.250Z,101310.47
2023-05-03T21:33:50.147Z,101327.31
2023-05-03T21:36:19.396Z,101342.47
2023-05-03T21:38:47.327Z,101339.00
2023-05-03T21:41:15.219Z,101344.44
2023-05-03T21:43:43.196Z,101330.38
2023-05-03T21:46:11.102Z,101335.63
2023-05-03T21:48:40.235Z,101322.47
2023-05-03T21:51:08.570Z,101331.31
2023-05-03T21:53:38.266Z,101331.34
2023-05-03T21:56:06.684Z,101309.94
2023-05-03T21:58:34.629Z,101330.28
2023-05-03T22:01:02.404Z,101318.78
2023-05-03T22:03:30.416Z,101332.22
2023-05-03T22:05:58.478Z,101322.50
2023-05-03T22:08:26.236Z,101322.63
2023-05-03T22:10:56.355Z,101301.47
2023-05-03T22:13:24.325Z,101314.78
2023-05-03T22:15:52.225Z,101319.22
2023-05-03T22:18:20.475Z,101321.88
2023-05-03T22:20:48.308Z,101314.78
2023-05-03T22:23:16.200Z,101319.28
2023-05-03T22:25:44.290Z,101316.59
2023-05-03T22:28:13.778Z,101307.72
2023-05-03T22:30:41.750Z,101308.66
2023-05-03T22:33:09.626Z,101313.19
2023-05-03T22:35:37.766Z,101313.22
2023-05-03T22:38:06.659Z,101311.53
2023-05-03T22:40:34.600Z,101311.53
2023-05-03T22:43:02.625Z,101307.97
2023-05-03T22:45:31.849Z,101295.63
2023-05-03T22:48:00.362Z,101304.53
2023-05-03T22:50:28.242Z,101307.25
2023-05-03T22:52:56.095Z,101309.94
2023-05-03T22:55:23.953Z,101280.75
2023-05-03T22:57:52.131Z,101294.84
2023-05-03T23:00:21.643Z,101300.19
2023-05-03T23:02:50.887Z,101296.63
2023-05-03T23:05:18.863Z,101299.28
2023-05-03T23:07:46.752Z,101301.00
2023-05-03T23:10:14.532Z,101277.13
2023-05-03T23:12:42.334Z,101297.53
2023-05-03T23:15:11.309Z,101295.78
2023-05-03T23:17:39.246Z,101293.22
2023-05-03T23:20:10.115Z,101263.16
2023-05-03T23:22:40.702Z,101295.81
2023-05-03T23:25:09.661Z,101289.69
2023-05-03T23:27:37.586Z,101287.94
2023-05-03T23:30:07.283Z,101262.31
2023-05-03T23:32:35.843Z,101263.25
2023-05-03T23:35:04.426Z,101271.22
2023-05-03T23:37:33.588Z,101280.06
2023-05-03T23:40:01.589Z,101288.91
2023-05-03T23:42:29.574Z,101269.47
2023-05-03T23:44:57.385Z,101289.81
2023-05-03T23:47:25.324Z,101277.44
2023-05-03T23:49:53.259Z,101276.56
2023-05-03T23:52:21.222Z,101269.53
2023-05-03T23:54:50.358Z,101266.03
2023-05-03T23:57:18.321Z,101277.56
2023-05-03T23:59:46.141Z,101263.34
